sensor_id;sensor_type;location;lat;lon;timestamp;temperature;humidity
19248;DHT22;9758;48.640;8.148;2024-03-06T00:02:28;9.80;60.10
19248;DHT22;9758;48.640;8.148;2024-03-06T00:04:54;9.80;60.10
19248;DHT22;9758;48.640;8.148;2024-03-06T00:07:21;9.80;60.10
19248;DHT22;9758;48.640;8.148;2024-03-06T00:09:48;9.80;60.10
19248;DHT22;9758;48.640;8.148;2024-03-06T00:12:14;9.80;60.10
19248;DHT22;9758;48.640;8.148;2024-03-06T00:14:41;9.80;60.20
19248;DHT22;9758;48.640;8.148;2024-03-06T00:17:08;9.80;60.20
19248;DHT22;9758;48.640;8.148;2024-03-06T00:19:36;9.80;60.30
19248;DHT22;9758;48.640;8.148;2024-03-06T00:22:03;9.80;60.20
19248;DHT22;9758;48.640;8.148;2024-03-06T00:24:30;9.80;60.20
19248;DHT22;9758;48.640;8.148;2024-03-06T00:26:58;9.80;60.20
19248;DHT22;9758;48.640;8.148;2024-03-06T00:29:24;9.80;60.20
19248;DHT22;9758;48.640;8.148;2024-03-06T00:31:51;9.80;60.30
19248;DHT22;9758;48.640;8.148;2024-03-06T00:34:19;9.80;60.30
19248;DHT22;9758;48.640;8.148;2024-03-06T00:36:48;9.80;60.20
19248;DHT22;9758;48.640;8.148;2024-03-06T00:39:15;9.80;60.30
19248;DHT22;9758;48.640;8.148;2024-03-06T00:41:41;9.80;60.30
19248;DHT22;9758;48.640;8.148;2024-03-06T00:44:08;9.70;60.20
19248;DHT22;9758;48.640;8.148;2024-03-06T00:46:35;9.80;60.30
19248;DHT22;9758;48.640;8.148;2024-03-06T00:49:02;9.80;60.30
19248;DHT22;9758;48.640;8.148;2024-03-06T00:51:28;9.70;60.20
19248;DHT22;9758;48.640;8.148;2024-03-06T00:53:57;9.80;60.30
19248;DHT22;9758;48.640;8.148;2024-03-06T00:56:24;9.70;60.20
19248;DHT22;9758;48.640;8.148;2024-03-06T00:58:51;9.80;60.30
19248;DHT22;9758;48.640;8.148;2024-03-06T01:01:17;9.80;60.20
19248;DHT22;9758;48.640;8.148;2024-03-06T01:03:44;9.80;60.20
19248;DHT22;9758;48.640;8.148;2024-03-06T01:06:11;9.80;60.20
19248;DHT22;9758;48.640;8.148;2024-03-06T01:08:38;9.80;60.20
19248;DHT22;9758;48.640;8.148;2024-03-06T01:11:06;9.80;60.20
19248;DHT22;9758;48.640;8.148;2024-03-06T01:13:32;9.80;60.20
19248;DHT22;9758;48.640;8.148;2024-03-06T01:15:59;9.70;60.10
19248;DHT22;9758;48.640;8.148;2024-03-06T01:18:26;9.80;60.20
19248;DHT22;9758;48.640;8.148;2024-03-06T01:20:53;9.80;60.20
19248;DHT22;9758;48.640;8.148;2024-03-06T01:23:20;9.80;60.20
19248;DHT22;9758;48.640;8.148;2024-03-06T01:25:46;9.80;60.20
19248;DHT22;9758;48.640;8.148;2024-03-06T01:28:15;9.80;60.20
19248;DHT22;9758;48.640;8.148;2024-03-06T01:30:41;9.80;60.20
19248;DHT22;9758;48.640;8.148;2024-03-06T01:33:08;9.70;60.20
19248;DHT22;9758;48.640;8.148;2024-03-06T01:35:35;9.80;60.30
19248;DHT22;9758;48.640;8.148;2024-03-06T01:38:02;9.80;60.30
19248;DHT22;9758;48.640;8.148;2024-03-06T01:40:30;9.80;60.30
19248;DHT22;9758;48.640;8.148;2024-03-06T01:42:57;9.80;60.30
19248;DHT22;9758;48.640;8.148;2024-03-06T01:45:25;9.80;60.30
19248;DHT22;9758;48.640;8.148;2024-03-06T01:47:52;9.80;60.30
19248;DHT22;9758;48.640;8.148;2024-03-06T01:50:19;9.80;60.30
19248;DHT22;9758;48.640;8.148;2024-03-06T01:52:46;9.80;60.20
19248;DHT22;9758;48.640;8.148;2024-03-06T01:55:14;9.80;60.20
19248;DHT22;9758;48.640;8.148;2024-03-06T01:57:41;9.80;60.30
19248;DHT22;9758;48.640;8.148;2024-03-06T02:00:09;9.80;60.20
19248;DHT22;9758;48.640;8.148;2024-03-06T02:02:41;9.80;60.30
19248;DHT22;9758;48.640;8.148;2024-03-06T02:05:08;9.80;60.30
19248;DHT22;9758;48.640;8.148;2024-03-06T02:07:37;9.80;60.30
19248;DHT22;9758;48.640;8.148;2024-03-06T02:10:06;9.80;60.30
19248;DHT22;9758;48.640;8.148;2024-03-06T02:12:35;9.90;60.30
19248;DHT22;9758;48.640;8.148;2024-03-06T02:15:02;9.80;60.20
19248;DHT22;9758;48.640;8.148;2024-03-06T02:17:29;9.90;60.30
19248;DHT22;9758;48.640;8.148;2024-03-06T02:19:57;9.80;60.30
19248;DHT22;9758;48.640;8.148;2024-03-06T02:22:26;9.80;60.20
19248;DHT22;9758;48.640;8.148;2024-03-06T02:24:52;9.90;60.30
19248;DHT22;9758;48.640;8.148;2024-03-06T02:27:19;9.80;60.30
19248;DHT22;9758;48.640;8.148;2024-03-06T02:29:46;9.80;60.30
19248;DHT22;9758;48.640;8.148;2024-03-06T02:32:13;9.80;60.30
19248;DHT22;9758;48.640;8.148;2024-03-06T02:34:40;9.90;60.40
19248;DHT22;9758;48.640;8.148;2024-03-06T02:37:07;9.90;60.30
19248;DHT22;9758;48.640;8.148;2024-03-06T02:39:36;9.90;60.30
19248;DHT22;9758;48.640;8.148;2024-03-06T02:42:03;9.90;61.10
19248;DHT22;9758;48.640;8.148;2024-03-06T02:44:30;9.90;60.30
19248;DHT22;9758;48.640;8.148;2024-03-06T02:46:56;9.90;60.30
19248;DHT22;9758;48.640;8.148;2024-03-06T02:49:23;9.90;60.30
19248;DHT22;9758;48.640;8.148;2024-03-06T02:51:50;9.90;60.30
19248;DHT22;9758;48.640;8.148;2024-03-06T02:54:17;9.90;60.30
19248;DHT22;9758;48.640;8.148;2024-03-06T02:56:46;9.90;60.30
19248;DHT22;9758;48.640;8.148;2024-03-06T02:59:12;9.90;60.30
19248;DHT22;9758;48.640;8.148;2024-03-06T03:01:39;9.90;60.30
19248;DHT22;9758;48.640;8.148;2024-03-06T03:04:06;9.90;60.40
19248;DHT22;9758;48.640;8.148;2024-03-06T03:06:33;9.90;60.30
19248;DHT22;9758;48.640;8.148;2024-03-06T03:09:00;9.90;60.30
19248;DHT22;9758;48.640;8.148;2024-03-06T03:11:27;9.90;60.30
19248;DHT22;9758;48.640;8.148;2024-03-06T03:13:55;9.80;60.30
19248;DHT22;9758;48.640;8.148;2024-03-06T03:16:22;9.80;60.30
19248;DHT22;9758;48.640;8.148;2024-03-06T03:18:49;9.80;60.40
19248;DHT22;9758;48.640;8.148;2024-03-06T03:21:15;9.80;60.50
19248;DHT22;9758;48.640;8.148;2024-03-06T03:23:42;9.80;60.50
19248;DHT22;9758;48.640;8.148;2024-03-06T03:26:09;9.80;60.50
19248;DHT22;9758;48.640;8.148;2024-03-06T03:28:37;9.80;60.50
19248;DHT22;9758;48.640;8.148;2024-03-06T03:31:06;9.80;60.50
19248;DHT22;9758;48.640;8.148;2024-03-06T03:33:34;9.90;60.50
19248;DHT22;9758;48.640;8.148;2024-03-06T03:36:02;9.90;60.50
19248;DHT22;9758;48.640;8.148;2024-03-06T03:38:28;9.90;60.50
19248;DHT22;9758;48.640;8.148;2024-03-06T03:40:55;9.90;60.50
19248;DHT22;9758;48.640;8.148;2024-03-06T03:43:22;9.90;60.50
19248;DHT22;9758;48.640;8.148;2024-03-06T03:45:48;9.90;60.50
19248;DHT22;9758;48.640;8.148;2024-03-06T03:48:16;9.90;60.50
19248;DHT22;9758;48.640;8.148;2024-03-06T03:50:43;9.90;60.50
19248;DHT22;9758;48.640;8.148;2024-03-06T03:53:10;9.90;60.50
19248;DHT22;9758;48.640;8.148;2024-03-06T03:55:37;9.90;60.40
19248;DHT22;9758;48.640;8.148;2024-03-06T03:58:04;9.90;60.50
19248;DHT22;9758;48.640;8.148;2024-03-06T04:00:32;9.90;60.40
19248;DHT22;9758;48.640;8.148;2024-03-06T04:02:59;9.90;60.50
19248;DHT22;9758;48.640;8.148;2024-03-06T04:05:27;9.90;60.50
19248;DHT22;9758;48.640;8.148;2024-03-06T04:07:54;9.90;60.50
19248;DHT22;9758;48.640;8.148;2024-03-06T04:10:21;9.90;60.50
19248;DHT22;9758;48.640;8.148;2024-03-06T04:12:47;9.90;61.20
19248;DHT22;9758;48.640;8.148;2024-03-06T04:15:14;9.90;60.40
19248;DHT22;9758;48.640;8.148;2024-03-06T04:17:41;9.90;60.40
19248;DHT22;9758;48.640;8.148;2024-03-06T04:20:09;9.90;60.40
19248;DHT22;9758;48.640;8.148;2024-03-06T04:22:39;9.90;61.20
19248;DHT22;9758;48.640;8.148;2024-03-06T04:25:06;9.90;60.50
19248;DHT22;9758;48.640;8.148;2024-03-06T04:27:32;9.90;60.40
19248;DHT22;9758;48.640;8.148;2024-03-06T04:29:59;9.90;60.40
19248;DHT22;9758;48.640;8.148;2024-03-06T04:32:27;9.90;60.40
19248;DHT22;9758;48.640;8.148;2024-03-06T04:34:53;9.90;60.50
19248;DHT22;9758;48.640;8.148;2024-03-06T04:37:21;9.90;60.50
19248;DHT22;9758;48.640;8.148;2024-03-06T04:39:49;9.90;60.40
19248;DHT22;9758;48.640;8.148;2024-03-06T04:42:16;9.90;60.40
19248;DHT22;9758;48.640;8.148;2024-03-06T04:44:43;9.90;60.50
19248;DHT22;9758;48.640;8.148;2024-03-06T04:47:09;9.90;60.50
19248;DHT22;9758;48.640;8.148;2024-03-06T04:49:36;9.90;60.50
19248;DHT22;9758;48.640;8.148;2024-03-06T04:52:03;9.90;60.50
19248;DHT22;9758;48.640;8.148;2024-03-06T04:54:30;9.90;60.50
19248;DHT22;9758;48.640;8.148;2024-03-06T04:56:59;9.90;60.50
19248;DHT22;9758;48.640;8.148;2024-03-06T04:59:25;9.90;60.50
19248;DHT22;9758;48.640;8.148;2024-03-06T05:01:53;9.90;60.50
19248;DHT22;9758;48.640;8.148;2024-03-06T05:04:20;9.80;60.40
19248;DHT22;9758;48.640;8.148;2024-03-06T05:06:46;9.90;60.50
19248;DHT22;9758;48.640;8.148;2024-03-06T05:09:13;9.90;60.50
19248;DHT22;9758;48.640;8.148;2024-03-06T05:11:40;9.90;60.60
19248;DHT22;9758;48.640;8.148;2024-03-06T05:14:08;9.80;60.50
19248;DHT22;9758;48.640;8.148;2024-03-06T05:16:35;9.80;60.60
19248;DHT22;9758;48.640;8.148;2024-03-06T05:19:01;9.80;60.60
19248;DHT22;9758;48.640;8.148;2024-03-06T05:21:30;9.90;60.60
19248;DHT22;9758;48.640;8.148;2024-03-06T05:23:56;9.80;60.60
19248;DHT22;9758;48.640;8.148;2024-03-06T05:26:23;9.80;60.60
19248;DHT22;9758;48.640;8.148;2024-03-06T05:28:50;9.90;60.60
19248;DHT22;9758;48.640;8.148;2024-03-06T05:31:19;9.80;60.60
19248;DHT22;9758;48.640;8.148;2024-03-06T05:33:47;9.80;60.50
19248;DHT22;9758;48.640;8.148;2024-03-06T05:36:15;9.80;60.40
19248;DHT22;9758;48.640;8.148;2024-03-06T05:38:42;9.80;60.30
19248;DHT22;9758;48.640;8.148;2024-03-06T05:41:09;9.80;60.40
19248;DHT22;9758;48.640;8.148;2024-03-06T05:43:36;9.70;60.40
19248;DHT22;9758;48.640;8.148;2024-03-06T05:46:03;9.70;60.50
19248;DHT22;9758;48.640;8.148;2024-03-06T05:48:31;9.70;60.40
19248;DHT22;9758;48.640;8.148;2024-03-06T05:50:58;9.60;60.40
19248;DHT22;9758;48.640;8.148;2024-03-06T05:53:25;9.60;60.50
19248;DHT22;9758;48.640;8.148;2024-03-06T05:55:52;9.50;60.50
19248;DHT22;9758;48.640;8.148;2024-03-06T05:58:20;9.50;60.60
19248;DHT22;9758;48.640;8.148;2024-03-06T06:00:47;9.50;60.50
19248;DHT22;9758;48.640;8.148;2024-03-06T06:03:14;9.50;60.60
19248;DHT22;9758;48.640;8.148;2024-03-06T06:05:42;9.50;60.60
19248;DHT22;9758;48.640;8.148;2024-03-06T06:08:09;9.60;60.60
19248;DHT22;9758;48.640;8.148;2024-03-06T06:10:36;9.60;60.60
19248;DHT22;9758;48.640;8.148;2024-03-06T06:13:03;9.60;60.60
19248;DHT22;9758;48.640;8.148;2024-03-06T06:15:31;9.60;60.60
19248;DHT22;9758;48.640;8.148;2024-03-06T06:17:58;9.70;60.60
19248;DHT22;9758;48.640;8.148;2024-03-06T06:20:25;9.70;60.60
19248;DHT22;9758;48.640;8.148;2024-03-06T06:22:53;9.70;60.60
19248;DHT22;9758;48.640;8.148;2024-03-06T06:25:20;9.70;60.60
19248;DHT22;9758;48.640;8.148;2024-03-06T06:27:47;9.70;60.60
19248;DHT22;9758;48.640;8.148;2024-03-06T06:30:15;9.70;60.60
19248;DHT22;9758;48.640;8.148;2024-03-06T06:32:42;9.80;60.60
19248;DHT22;9758;48.640;8.148;2024-03-06T06:35:10;9.70;60.50
19248;DHT22;9758;48.640;8.148;2024-03-06T06:37:37;9.70;60.50
19248;DHT22;9758;48.640;8.148;2024-03-06T06:40:06;9.70;60.50
19248;DHT22;9758;48.640;8.148;2024-03-06T06:42:34;9.70;60.40
19248;DHT22;9758;48.640;8.148;2024-03-06T06:45:01;9.70;60.40
19248;DHT22;9758;48.640;8.148;2024-03-06T06:47:28;9.70;60.50
19248;DHT22;9758;48.640;8.148;2024-03-06T06:49:55;9.60;60.50
19248;DHT22;9758;48.640;8.148;2024-03-06T06:52:22;9.60;60.60
19248;DHT22;9758;48.640;8.148;2024-03-06T06:54:49;9.70;60.60
19248;DHT22;9758;48.640;8.148;2024-03-06T06:57:18;9.70;60.60
19248;DHT22;9758;48.640;8.148;2024-03-06T06:59:45;9.70;60.60
19248;DHT22;9758;48.640;8.148;2024-03-06T07:02:12;9.70;60.60
19248;DHT22;9758;48.640;8.148;2024-03-06T07:04:39;9.80;60.70
19248;DHT22;9758;48.640;8.148;2024-03-06T07:07:06;9.80;60.60
19248;DHT22;9758;48.640;8.148;2024-03-06T07:09:32;9.80;60.60
19248;DHT22;9758;48.640;8.148;2024-03-06T07:11:59;9.80;60.60
19248;DHT22;9758;48.640;8.148;2024-03-06T07:14:27;9.80;60.60
19248;DHT22;9758;48.640;8.148;2024-03-06T07:16:54;9.80;60.60
19248;DHT22;9758;48.640;8.148;2024-03-06T07:19:21;9.80;60.60
19248;DHT22;9758;48.640;8.148;2024-03-06T07:21:47;9.80;60.60
19248;DHT22;9758;48.640;8.148;2024-03-06T07:24:14;9.90;60.70
19248;DHT22;9758;48.640;8.148;2024-03-06T07:26:41;9.90;60.60
19248;DHT22;9758;48.640;8.148;2024-03-06T07:29:08;9.90;60.60
19248;DHT22;9758;48.640;8.148;2024-03-06T07:31:41;9.90;60.60
19248;DHT22;9758;48.640;8.148;2024-03-06T07:34:10;9.90;60.60
19248;DHT22;9758;48.640;8.148;2024-03-06T07:36:37;9.90;60.60
19248;DHT22;9758;48.640;8.148;2024-03-06T07:39:03;9.90;60.60
19248;DHT22;9758;48.640;8.148;2024-03-06T07:41:30;9.90;60.70
19248;DHT22;9758;48.640;8.148;2024-03-06T07:43:58;9.90;60.60
19248;DHT22;9758;48.640;8.148;2024-03-06T07:46:25;9.90;60.50
19248;DHT22;9758;48.640;8.148;2024-03-06T07:48:53;9.90;60.50
19248;DHT22;9758;48.640;8.148;2024-03-06T07:51:20;9.90;60.50
19248;DHT22;9758;48.640;8.148;2024-03-06T07:53:47;9.80;60.30
19248;DHT22;9758;48.640;8.148;2024-03-06T07:56:15;9.80;60.40
19248;DHT22;9758;48.640;8.148;2024-03-06T07:58:42;9.70;60.50
19248;DHT22;9758;48.640;8.148;2024-03-06T08:01:10;9.70;60.60
19248;DHT22;9758;48.640;8.148;2024-03-06T08:03:39;9.60;60.60
19248;DHT22;9758;48.640;8.148;2024-03-06T08:06:07;9.60;60.50
19248;DHT22;9758;48.640;8.148;2024-03-06T08:08:34;9.50;60.80
19248;DHT22;9758;48.640;8.148;2024-03-06T08:11:01;9.50;60.90
19248;DHT22;9758;48.640;8.148;2024-03-06T08:13:28;9.50;60.90
19248;DHT22;9758;48.640;8.148;2024-03-06T08:15:55;9.50;61.00
19248;DHT22;9758;48.640;8.148;2024-03-06T08:18:22;9.50;61.10
19248;DHT22;9758;48.640;8.148;2024-03-06T08:20:48;9.60;61.10
19248;DHT22;9758;48.640;8.148;2024-03-06T08:23:16;9.60;61.00
19248;DHT22;9758;48.640;8.148;2024-03-06T08:25:43;9.60;60.90
19248;DHT22;9758;48.640;8.148;2024-03-06T08:28:10;9.70;60.90
19248;DHT22;9758;48.640;8.148;2024-03-06T08:30:37;9.70;60.80
19248;DHT22;9758;48.640;8.148;2024-03-06T08:33:04;9.70;60.80
19248;DHT22;9758;48.640;8.148;2024-03-06T08:35:31;9.70;60.80
19248;DHT22;9758;48.640;8.148;2024-03-06T08:37:57;9.80;60.80
19248;DHT22;9758;48.640;8.148;2024-03-06T08:40:26;9.80;60.80
19248;DHT22;9758;48.640;8.148;2024-03-06T08:42:53;9.80;60.70
19248;DHT22;9758;48.640;8.148;2024-03-06T08:45:21;9.90;60.70
19248;DHT22;9758;48.640;8.148;2024-03-06T08:47:48;9.90;60.60
19248;DHT22;9758;48.640;8.148;2024-03-06T08:50:16;9.90;60.50
19248;DHT22;9758;48.640;8.148;2024-03-06T08:52:43;9.90;60.50
19248;DHT22;9758;48.640;8.148;2024-03-06T08:55:09;9.90;60.30
19248;DHT22;9758;48.640;8.148;2024-03-06T08:57:38;9.90;60.40
19248;DHT22;9758;48.640;8.148;2024-03-06T09:00:07;9.90;60.50
19248;DHT22;9758;48.640;8.148;2024-03-06T09:02:36;9.90;60.60
19248;DHT22;9758;48.640;8.148;2024-03-06T09:05:04;9.90;60.70
19248;DHT22;9758;48.640;8.148;2024-03-06T09:07:32;9.90;60.60
19248;DHT22;9758;48.640;8.148;2024-03-06T09:10:03;10.00;60.60
19248;DHT22;9758;48.640;8.148;2024-03-06T09:12:31;10.00;60.60
19248;DHT22;9758;48.640;8.148;2024-03-06T09:15:00;10.00;60.60
19248;DHT22;9758;48.640;8.148;2024-03-06T09:17:35;10.10;60.50
19248;DHT22;9758;48.640;8.148;2024-03-06T09:20:02;10.10;60.50
19248;DHT22;9758;48.640;8.148;2024-03-06T09:22:35;10.10;60.40
19248;DHT22;9758;48.640;8.148;2024-03-06T09:25:04;10.00;60.20
19248;DHT22;9758;48.640;8.148;2024-03-06T09:27:30;9.80;60.30
19248;DHT22;9758;48.640;8.148;2024-03-06T09:29:59;9.80;60.50
19248;DHT22;9758;48.640;8.148;2024-03-06T09:32:26;9.70;60.80
19248;DHT22;9758;48.640;8.148;2024-03-06T09:34:53;9.60;60.90
19248;DHT22;9758;48.640;8.148;2024-03-06T09:37:21;9.60;60.80
19248;DHT22;9758;48.640;8.148;2024-03-06T09:39:47;9.60;60.90
19248;DHT22;9758;48.640;8.148;2024-03-06T09:42:16;9.60;61.00
19248;DHT22;9758;48.640;8.148;2024-03-06T09:44:43;9.60;61.10
19248;DHT22;9758;48.640;8.148;2024-03-06T09:47:14;9.70;61.10
19248;DHT22;9758;48.640;8.148;2024-03-06T09:49:41;9.80;61.10
19248;DHT22;9758;48.640;8.148;2024-03-06T09:52:08;9.90;61.10
19248;DHT22;9758;48.640;8.148;2024-03-06T09:54:37;10.00;60.90
19248;DHT22;9758;48.640;8.148;2024-03-06T09:57:05;10.00;60.70
19248;DHT22;9758;48.640;8.148;2024-03-06T09:59:32;10.00;60.80
19248;DHT22;9758;48.640;8.148;2024-03-06T10:02:00;10.10;60.90
19248;DHT22;9758;48.640;8.148;2024-03-06T10:04:32;10.20;60.80
19248;DHT22;9758;48.640;8.148;2024-03-06T10:07:02;10.30;60.70
19248;DHT22;9758;48.640;8.148;2024-03-06T10:09:30;10.30;60.70
19248;DHT22;9758;48.640;8.148;2024-03-06T10:11:58;10.40;60.60
19248;DHT22;9758;48.640;8.148;2024-03-06T10:14:25;10.40;60.50
19248;DHT22;9758;48.640;8.148;2024-03-06T10:16:54;10.50;60.40
19248;DHT22;9758;48.640;8.148;2024-03-06T10:19:37;10.50;60.40
19248;DHT22;9758;48.640;8.148;2024-03-06T10:22:06;10.50;60.40
19248;DHT22;9758;48.640;8.148;2024-03-06T10:24:33;10.60;60.30
19248;DHT22;9758;48.640;8.148;2024-03-06T10:27:00;10.60;60.20
19248;DHT22;9758;48.640;8.148;2024-03-06T10:29:28;10.60;60.20
19248;DHT22;9758;48.640;8.148;2024-03-06T10:31:57;10.60;60.30
19248;DHT22;9758;48.640;8.148;2024-03-06T10:34:26;10.60;60.30
19248;DHT22;9758;48.640;8.148;2024-03-06T10:36:55;10.60;60.40
19248;DHT22;9758;48.640;8.148;2024-03-06T10:39:23;10.70;60.50
19248;DHT22;9758;48.640;8.148;2024-03-06T10:41:52;10.80;60.40
19248;DHT22;9758;48.640;8.148;2024-03-06T10:44:22;10.80;60.40
19248;DHT22;9758;48.640;8.148;2024-03-06T10:46:55;10.80;60.20
19248;DHT22;9758;48.640;8.148;2024-03-06T10:49:24;10.80;60.20
19248;DHT22;9758;48.640;8.148;2024-03-06T10:51:55;10.80;60.20
19248;DHT22;9758;48.640;8.148;2024-03-06T10:54:26;10.90;60.20
19248;DHT22;9758;48.640;8.148;2024-03-06T10:56:55;10.90;60.20
19248;DHT22;9758;48.640;8.148;2024-03-06T10:59:24;11.00;60.10
19248;DHT22;9758;48.640;8.148;2024-03-06T11:01:53;11.00;60.00
19248;DHT22;9758;48.640;8.148;2024-03-06T11:04:21;10.90;60.00
19248;DHT22;9758;48.640;8.148;2024-03-06T11:06:49;10.90;60.00
19248;DHT22;9758;48.640;8.148;2024-03-06T11:09:18;10.80;60.00
19248;DHT22;9758;48.640;8.148;2024-03-06T11:11:48;10.80;60.20
19248;DHT22;9758;48.640;8.148;2024-03-06T11:14:16;10.90;60.30
19248;DHT22;9758;48.640;8.148;2024-03-06T11:17:01;10.90;60.20
19248;DHT22;9758;48.640;8.148;2024-03-06T11:19:28;10.80;60.10
19248;DHT22;9758;48.640;8.148;2024-03-06T11:21:55;10.90;60.10
19248;DHT22;9758;48.640;8.148;2024-03-06T11:24:24;10.80;60.10
19248;DHT22;9758;48.640;8.148;2024-03-06T11:27:00;10.80;60.20
19248;DHT22;9758;48.640;8.148;2024-03-06T11:30:10;10.80;60.40
19248;DHT22;9758;48.640;8.148;2024-03-06T11:32:59;10.70;60.20
19248;DHT22;9758;48.640;8.148;2024-03-06T11:35:27;10.60;60.30
19248;DHT22;9758;48.640;8.148;2024-03-06T11:37:54;10.60;60.50
19248;DHT22;9758;48.640;8.148;2024-03-06T11:40:24;10.60;60.50
19248;DHT22;9758;48.640;8.148;2024-03-06T11:42:51;10.60;60.40
19248;DHT22;9758;48.640;8.148;2024-03-06T11:45:19;10.50;60.40
19248;DHT22;9758;48.640;8.148;2024-03-06T11:47:57;10.50;60.40
19248;DHT22;9758;48.640;8.148;2024-03-06T11:50:26;10.60;61.10
19248;DHT22;9758;48.640;8.148;2024-03-06T11:52:53;10.50;60.20
19248;DHT22;9758;48.640;8.148;2024-03-06T11:55:21;10.50;60.40
19248;DHT22;9758;48.640;8.148;2024-03-06T11:57:52;10.50;60.60
19248;DHT22;9758;48.640;8.148;2024-03-06T12:00:21;10.50;60.60
19248;DHT22;9758;48.640;8.148;2024-03-06T12:02:48;10.60;60.50
19248;DHT22;9758;48.640;8.148;2024-03-06T12:05:15;10.60;60.40
19248;DHT22;9758;48.640;8.148;2024-03-06T12:07:46;10.70;60.30
19248;DHT22;9758;48.640;8.148;2024-03-06T12:10:16;10.70;60.20
19248;DHT22;9758;48.640;8.148;2024-03-06T12:12:43;10.70;60.10
19248;DHT22;9758;48.640;8.148;2024-03-06T12:15:14;10.70;60.70
19248;DHT22;9758;48.640;8.148;2024-03-06T12:17:44;10.70;60.10
19248;DHT22;9758;48.640;8.148;2024-03-06T12:20:12;10.70;60.20
19248;DHT22;9758;48.640;8.148;2024-03-06T12:22:44;10.60;60.00
19248;DHT22;9758;48.640;8.148;2024-03-06T12:25:17;10.60;60.00
19248;DHT22;9758;48.640;8.148;2024-03-06T12:27:44;10.50;60.00
19248;DHT22;9758;48.640;8.148;2024-03-06T12:30:15;10.50;60.20
19248;DHT22;9758;48.640;8.148;2024-03-06T12:32:43;10.60;60.40
19248;DHT22;9758;48.640;8.148;2024-03-06T12:35:10;10.60;60.30
19248;DHT22;9758;48.640;8.148;2024-03-06T12:37:36;10.70;60.30
19248;DHT22;9758;48.640;8.148;2024-03-06T12:40:04;10.70;60.10
19248;DHT22;9758;48.640;8.148;2024-03-06T12:42:31;10.70;60.80
19248;DHT22;9758;48.640;8.148;2024-03-06T12:44:58;10.70;60.00
19248;DHT22;9758;48.640;8.148;2024-03-06T12:47:26;10.70;60.00
19248;DHT22;9758;48.640;8.148;2024-03-06T12:49:52;10.80;60.10
19248;DHT22;9758;48.640;8.148;2024-03-06T12:52:19;10.90;60.00
19248;DHT22;9758;48.640;8.148;2024-03-06T12:54:46;10.90;60.00
19248;DHT22;9758;48.640;8.148;2024-03-06T12:57:13;10.90;60.00
19248;DHT22;9758;48.640;8.148;2024-03-06T12:59:40;11.00;60.00
19248;DHT22;9758;48.640;8.148;2024-03-06T13:02:07;11.00;60.00
19248;DHT22;9758;48.640;8.148;2024-03-06T13:04:40;11.00;60.00
19248;DHT22;9758;48.640;8.148;2024-03-06T13:07:07;11.10;60.00
19248;DHT22;9758;48.640;8.148;2024-03-06T13:09:33;11.20;60.00
19248;DHT22;9758;48.640;8.148;2024-03-06T13:12:00;11.20;60.00
19248;DHT22;9758;48.640;8.148;2024-03-06T13:14:27;11.20;59.90
19248;DHT22;9758;48.640;8.148;2024-03-06T13:16:54;11.30;59.90
19248;DHT22;9758;48.640;8.148;2024-03-06T13:19:21;11.20;59.80
19248;DHT22;9758;48.640;8.148;2024-03-06T13:21:49;11.30;59.80
19248;DHT22;9758;48.640;8.148;2024-03-06T13:24:18;11.20;59.70
19248;DHT22;9758;48.640;8.148;2024-03-06T13:26:45;11.30;59.80
19248;DHT22;9758;48.640;8.148;2024-03-06T13:29:15;11.30;59.80
19248;DHT22;9758;48.640;8.148;2024-03-06T13:31:43;11.30;59.90
19248;DHT22;9758;48.640;8.148;2024-03-06T13:34:11;11.40;59.90
19248;DHT22;9758;48.640;8.148;2024-03-06T13:36:37;11.40;59.90
19248;DHT22;9758;48.640;8.148;2024-03-06T13:39:05;11.50;59.80
19248;DHT22;9758;48.640;8.148;2024-03-06T13:41:32;11.50;59.70
19248;DHT22;9758;48.640;8.148;2024-03-06T13:43:59;11.50;59.60
19248;DHT22;9758;48.640;8.148;2024-03-06T13:46:26;11.50;59.60
19248;DHT22;9758;48.640;8.148;2024-03-06T13:48:53;11.50;59.60
19248;DHT22;9758;48.640;8.148;2024-03-06T13:51:19;11.50;59.60
19248;DHT22;9758;48.640;8.148;2024-03-06T13:53:46;11.50;59.60
19248;DHT22;9758;48.640;8.148;2024-03-06T13:56:15;11.50;59.60
19248;DHT22;9758;48.640;8.148;2024-03-06T13:58:41;11.50;59.60
19248;DHT22;9758;48.640;8.148;2024-03-06T14:01:08;11.50;59.60
19248;DHT22;9758;48.640;8.148;2024-03-06T14:03:35;11.50;59.60
19248;DHT22;9758;48.640;8.148;2024-03-06T14:06:03;11.50;59.60
19248;DHT22;9758;48.640;8.148;2024-03-06T14:08:30;11.50;59.60
19248;DHT22;9758;48.640;8.148;2024-03-06T14:10:57;11.50;59.60
19248;DHT22;9758;48.640;8.148;2024-03-06T14:13:25;11.40;59.60
19248;DHT22;9758;48.640;8.148;2024-03-06T14:15:52;11.40;59.70
19248;DHT22;9758;48.640;8.148;2024-03-06T14:18:18;11.40;59.70
19248;DHT22;9758;48.640;8.148;2024-03-06T14:20:45;11.40;59.80
19248;DHT22;9758;48.640;8.148;2024-03-06T14:23:12;11.40;59.80
19248;DHT22;9758;48.640;8.148;2024-03-06T14:25:39;11.40;59.80
19248;DHT22;9758;48.640;8.148;2024-03-06T14:28:06;11.40;59.80
19248;DHT22;9758;48.640;8.148;2024-03-06T14:30:34;11.40;59.80
19248;DHT22;9758;48.640;8.148;2024-03-06T14:33:03;11.40;59.80
19248;DHT22;9758;48.640;8.148;2024-03-06T14:35:30;11.40;59.80
19248;DHT22;9758;48.640;8.148;2024-03-06T14:37:57;11.40;59.90
19248;DHT22;9758;48.640;8.148;2024-03-06T14:40:25;11.40;59.90
19248;DHT22;9758;48.640;8.148;2024-03-06T14:42:52;11.40;59.90
19248;DHT22;9758;48.640;8.148;2024-03-06T14:45:19;11.40;59.90
19248;DHT22;9758;48.640;8.148;2024-03-06T14:47:47;11.40;59.90
19248;DHT22;9758;48.640;8.148;2024-03-06T14:50:14;11.30;60.40
19248;DHT22;9758;48.640;8.148;2024-03-06T14:52:41;11.30;59.90
19248;DHT22;9758;48.640;8.148;2024-03-06T14:55:08;11.30;59.90
19248;DHT22;9758;48.640;8.148;2024-03-06T14:57:35;11.30;59.90
19248;DHT22;9758;48.640;8.148;2024-03-06T15:00:02;11.20;59.90
19248;DHT22;9758;48.640;8.148;2024-03-06T15:02:32;11.20;59.90
19248;DHT22;9758;48.640;8.148;2024-03-06T15:05:00;11.20;59.90
19248;DHT22;9758;48.640;8.148;2024-03-06T15:07:26;11.20;60.00
19248;DHT22;9758;48.640;8.148;2024-03-06T15:09:53;11.20;60.00
19248;DHT22;9758;48.640;8.148;2024-03-06T15:12:20;11.20;60.00
19248;DHT22;9758;48.640;8.148;2024-03-06T15:14:47;11.20;60.00
19248;DHT22;9758;48.640;8.148;2024-03-06T15:17:14;11.20;60.00
19248;DHT22;9758;48.640;8.148;2024-03-06T15:19:40;11.20;60.00
19248;DHT22;9758;48.640;8.148;2024-03-06T15:22:09;11.10;60.00
19248;DHT22;9758;48.640;8.148;2024-03-06T15:24:36;11.10;60.00
19248;DHT22;9758;48.640;8.148;2024-03-06T15:27:03;11.10;60.00
19248;DHT22;9758;48.640;8.148;2024-03-06T15:29:30;11.10;60.00
19248;DHT22;9758;48.640;8.148;2024-03-06T15:31:57;11.10;60.00
19248;DHT22;9758;48.640;8.148;2024-03-06T15:34:25;11.10;60.10
19248;DHT22;9758;48.640;8.148;2024-03-06T15:36:52;11.10;60.10
19248;DHT22;9758;48.640;8.148;2024-03-06T15:39:20;11.00;60.00
19248;DHT22;9758;48.640;8.148;2024-03-06T15:41:48;11.00;60.00
19248;DHT22;9758;48.640;8.148;2024-03-06T15:44:14;11.00;60.00
19248;DHT22;9758;48.640;8.148;2024-03-06T15:46:41;11.00;60.10
19248;DHT22;9758;48.640;8.148;2024-03-06T15:49:20;11.00;60.20
19248;DHT22;9758;48.640;8.148;2024-03-06T15:51:51;11.00;60.20
19248;DHT22;9758;48.640;8.148;2024-03-06T15:54:21;11.00;60.20
19248;DHT22;9758;48.640;8.148;2024-03-06T15:56:48;11.00;60.10
19248;DHT22;9758;48.640;8.148;2024-03-06T15:59:15;11.00;60.10